sensor_id;sensor_type;location;lat;lon;timestamp;temperature;humidity
13482;DHT22;6813;60.352;15.746;2023-08-06T00:00:09;16.70;99.90
13482;DHT22;6813;60.352;15.746;2023-08-06T00:02:34;16.70;99.90
13482;DHT22;6813;60.352;15.746;2023-08-06T00:05:00;16.60;99.90
13482;DHT22;6813;60.352;15.746;2023-08-06T00:07:26;16.60;99.90
13482;DHT22;6813;60.352;15.746;2023-08-06T00:09:52;16.60;99.90
13482;DHT22;6813;60.352;15.746;2023-08-06T00:12:18;16.60;99.90
13482;DHT22;6813;60.352;15.746;2023-08-06T00:14:43;16.60;99.90
13482;DHT22;6813;60.352;15.746;2023-08-06T00:17:09;16.60;99.90
13482;DHT22;6813;60.352;15.746;2023-08-06T00:19:35;16.60;99.90
13482;DHT22;6813;60.352;15.746;2023-08-06T00:22:01;16.60;99.90
13482;DHT22;6813;60.352;15.746;2023-08-06T00:24:27;16.60;99.90
13482;DHT22;6813;60.352;15.746;2023-08-06T00:26:53;16.60;99.90
13482;DHT22;6813;60.352;15.746;2023-08-06T00:29:19;16.60;99.90
13482;DHT22;6813;60.352;15.746;2023-08-06T00:31:44;16.50;99.90
13482;DHT22;6813;60.352;15.746;2023-08-06T00:34:10;16.50;99.90
13482;DHT22;6813;60.352;15.746;2023-08-06T00:36:36;16.60;99.90
13482;DHT22;6813;60.352;15.746;2023-08-06T00:39:02;16.60;99.90
13482;DHT22;6813;60.352;15.746;2023-08-06T00:41:28;16.50;99.90
13482;DHT22;6813;60.352;15.746;2023-08-06T00:43:53;16.50;99.90
13482;DHT22;6813;60.352;15.746;2023-08-06T00:46:19;16.50;99.90
13482;DHT22;6813;60.352;15.746;2023-08-06T00:48:46;16.40;99.90
13482;DHT22;6813;60.352;15.746;2023-08-06T00:51:12;16.40;99.90
13482;DHT22;6813;60.352;15.746;2023-08-06T00:53:39;16.30;99.90
13482;DHT22;6813;60.352;15.746;2023-08-06T00:56:05;16.30;99.90
13482;DHT22;6813;60.352;15.746;2023-08-06T00:58:31;16.30;99.90
13482;DHT22;6813;60.352;15.746;2023-08-06T01:00:57;16.30;99.90
13482;DHT22;6813;60.352;15.746;2023-08-06T01:03:23;16.20;99.90
13482;DHT22;6813;60.352;15.746;2023-08-06T01:05:49;16.10;99.90
13482;DHT22;6813;60.352;15.746;2023-08-06T01:11:38;16.10;99.90
13482;DHT22;6813;60.352;15.746;2023-08-06T01:14:02;16.10;99.90
13482;DHT22;6813;60.352;15.746;2023-08-06T01:16:29;16.00;99.90
13482;DHT22;6813;60.352;15.746;2023-08-06T01:18:55;16.00;99.90
13482;DHT22;6813;60.352;15.746;2023-08-06T01:21:23;15.90;99.90
13482;DHT22;6813;60.352;15.746;2023-08-06T01:23:49;15.80;99.90
13482;DHT22;6813;60.352;15.746;2023-08-06T01:26:30;15.80;99.90
13482;DHT22;6813;60.352;15.746;2023-08-06T01:29:16;15.80;99.90
13482;DHT22;6813;60.352;15.746;2023-08-06T01:31:44;15.80;99.90
13482;DHT22;6813;60.352;15.746;2023-08-06T01:34:22;15.80;99.90
13482;DHT22;6813;60.352;15.746;2023-08-06T01:36:49;15.70;99.90
13482;DHT22;6813;60.352;15.746;2023-08-06T01:39:16;15.70;99.90
13482;DHT22;6813;60.352;15.746;2023-08-06T01:41:41;15.70;99.90
13482;DHT22;6813;60.352;15.746;2023-08-06T01:44:07;15.70;99.90
13482;DHT22;6813;60.352;15.746;2023-08-06T01:46:33;15.70;99.90
13482;DHT22;6813;60.352;15.746;2023-08-06T01:48:58;15.70;99.90
13482;DHT22;6813;60.352;15.746;2023-08-06T01:51:24;15.60;99.90
13482;DHT22;6813;60.352;15.746;2023-08-06T01:53:50;15.60;99.90
13482;DHT22;6813;60.352;15.746;2023-08-06T01:56:15;15.70;99.90
13482;DHT22;6813;60.352;15.746;2023-08-06T01:58:41;15.60;99.90
13482;DHT22;6813;60.352;15.746;2023-08-06T02:01:07;15.70;99.90
13482;DHT22;6813;60.352;15.746;2023-08-06T02:03:32;15.70;99.90
13482;DHT22;6813;60.352;15.746;2023-08-06T02:05:58;15.70;99.90
13482;DHT22;6813;60.352;15.746;2023-08-06T02:08:24;15.70;99.90
13482;DHT22;6813;60.352;15.746;2023-08-06T02:10:49;15.70;99.90
13482;DHT22;6813;60.352;15.746;2023-08-06T02:13:15;15.70;99.90
13482;DHT22;6813;60.352;15.746;2023-08-06T02:15:45;15.70;99.90
13482;DHT22;6813;60.352;15.746;2023-08-06T02:18:13;15.80;99.90
13482;DHT22;6813;60.352;15.746;2023-08-06T02:20:39;15.80;99.90
13482;DHT22;6813;60.352;15.746;2023-08-06T02:23:04;15.70;99.90
13482;DHT22;6813;60.352;15.746;2023-08-06T02:25:30;15.70;99.90
13482;DHT22;6813;60.352;15.746;2023-08-06T02:27:56;15.70;99.90
13482;DHT22;6813;60.352;15.746;2023-08-06T02:30:21;15.70;99.90
13482;DHT22;6813;60.352;15.746;2023-08-06T02:32:47;15.70;99.90
13482;DHT22;6813;60.352;15.746;2023-08-06T02:35:13;15.70;99.90
13482;DHT22;6813;60.352;15.746;2023-08-06T02:37:38;15.80;99.90
13482;DHT22;6813;60.352;15.746;2023-08-06T02:40:05;15.80;99.90
13482;DHT22;6813;60.352;15.746;2023-08-06T02:42:30;15.70;99.90
13482;DHT22;6813;60.352;15.746;2023-08-06T02:44:56;15.70;99.90
13482;DHT22;6813;60.352;15.746;2023-08-06T02:47:22;15.70;99.90
13482;DHT22;6813;60.352;15.746;2023-08-06T02:49:48;15.70;99.90
13482;DHT22;6813;60.352;15.746;2023-08-06T02:52:13;15.70;99.90
13482;DHT22;6813;60.352;15.746;2023-08-06T02:54:39;15.70;99.90
13482;DHT22;6813;60.352;15.746;2023-08-06T02:57:05;15.70;99.90
13482;DHT22;6813;60.352;15.746;2023-08-06T02:59:31;15.70;99.90
13482;DHT22;6813;60.352;15.746;2023-08-06T03:01:57;15.60;99.90
13482;DHT22;6813;60.352;15.746;2023-08-06T03:04:23;15.60;99.90
13482;DHT22;6813;60.352;15.746;2023-08-06T03:06:51;15.60;99.90
13482;DHT22;6813;60.352;15.746;2023-08-06T03:09:18;15.60;99.90
13482;DHT22;6813;60.352;15.746;2023-08-06T03:11:43;15.70;99.90
13482;DHT22;6813;60.352;15.746;2023-08-06T03:14:09;15.70;99.90
13482;DHT22;6813;60.352;15.746;2023-08-06T03:16:35;15.70;99.90
13482;DHT22;6813;60.352;15.746;2023-08-06T03:19:01;15.70;99.90
13482;DHT22;6813;60.352;15.746;2023-08-06T03:21:26;15.70;99.90
13482;DHT22;6813;60.352;15.746;2023-08-06T03:23:52;15.70;99.90
13482;DHT22;6813;60.352;15.746;2023-08-06T03:26:18;15.60;99.90
13482;DHT22;6813;60.352;15.746;2023-08-06T03:28:43;15.60;99.90
13482;DHT22;6813;60.352;15.746;2023-08-06T03:31:09;15.60;99.90
13482;DHT22;6813;60.352;15.746;2023-08-06T03:33:35;15.60;99.90
13482;DHT22;6813;60.352;15.746;2023-08-06T03:36:01;15.70;99.90
13482;DHT22;6813;60.352;15.746;2023-08-06T03:38:27;15.70;99.90
13482;DHT22;6813;60.352;15.746;2023-08-06T03:40:53;15.70;99.90
13482;DHT22;6813;60.352;15.746;2023-08-06T03:43:19;15.80;99.90
13482;DHT22;6813;60.352;15.746;2023-08-06T03:45:45;15.80;99.90
13482;DHT22;6813;60.352;15.746;2023-08-06T03:48:11;15.80;99.90
13482;DHT22;6813;60.352;15.746;2023-08-06T03:50:36;15.90;99.90
13482;DHT22;6813;60.352;15.746;2023-08-06T03:53:03;15.90;99.90
13482;DHT22;6813;60.352;15.746;2023-08-06T03:55:29;16.00;99.90
13482;DHT22;6813;60.352;15.746;2023-08-06T03:57:54;15.90;99.90
13482;DHT22;6813;60.352;15.746;2023-08-06T04:00:20;15.90;99.90
13482;DHT22;6813;60.352;15.746;2023-08-06T04:02:46;16.00;99.90
13482;DHT22;6813;60.352;15.746;2023-08-06T04:05:12;15.90;99.90
13482;DHT22;6813;60.352;15.746;2023-08-06T04:07:37;16.00;99.90
13482;DHT22;6813;60.352;15.746;2023-08-06T04:10:04;15.90;99.90
13482;DHT22;6813;60.352;15.746;2023-08-06T04:12:30;15.90;99.90
13482;DHT22;6813;60.352;15.746;2023-08-06T04:15:00;15.80;99.90
13482;DHT22;6813;60.352;15.746;2023-08-06T04:17:26;15.90;99.90
13482;DHT22;6813;60.352;15.746;2023-08-06T04:19:53;15.90;99.90
13482;DHT22;6813;60.352;15.746;2023-08-06T04:22:20;16.00;99.90
13482;DHT22;6813;60.352;15.746;2023-08-06T04:24:47;16.00;99.90
13482;DHT22;6813;60.352;15.746;2023-08-06T04:27:14;16.00;99.90
13482;DHT22;6813;60.352;15.746;2023-08-06T04:29:40;15.90;99.90
13482;DHT22;6813;60.352;15.746;2023-08-06T04:32:07;16.00;99.90
13482;DHT22;6813;60.352;15.746;2023-08-06T04:34:33;16.10;99.90
13482;DHT22;6813;60.352;15.746;2023-08-06T04:37:00;16.00;99.90
13482;DHT22;6813;60.352;15.746;2023-08-06T04:39:25;15.80;99.90
13482;DHT22;6813;60.352;15.746;2023-08-06T04:41:51;15.90;99.90
13482;DHT22;6813;60.352;15.746;2023-08-06T04:44:17;16.00;99.90
13482;DHT22;6813;60.352;15.746;2023-08-06T04:46:42;16.10;99.90
13482;DHT22;6813;60.352;15.746;2023-08-06T04:49:08;16.10;99.90
13482;DHT22;6813;60.352;15.746;2023-08-06T04:51:34;16.10;99.90
13482;DHT22;6813;60.352;15.746;2023-08-06T04:54:00;16.10;99.90
13482;DHT22;6813;60.352;15.746;2023-08-06T04:56:25;16.20;99.90
13482;DHT22;6813;60.352;15.746;2023-08-06T04:58:51;16.20;99.90
13482;DHT22;6813;60.352;15.746;2023-08-06T05:01:17;16.20;99.90
13482;DHT22;6813;60.352;15.746;2023-08-06T05:03:43;16.30;99.90
13482;DHT22;6813;60.352;15.746;2023-08-06T05:06:09;16.30;99.90
13482;DHT22;6813;60.352;15.746;2023-08-06T05:08:35;16.30;99.90
13482;DHT22;6813;60.352;15.746;2023-08-06T05:11:00;16.30;99.90
13482;DHT22;6813;60.352;15.746;2023-08-06T05:13:26;16.40;99.90
13482;DHT22;6813;60.352;15.746;2023-08-06T05:15:53;16.40;99.90
13482;DHT22;6813;60.352;15.746;2023-08-06T05:18:19;16.50;99.90
13482;DHT22;6813;60.352;15.746;2023-08-06T05:20:45;16.60;99.90
13482;DHT22;6813;60.352;15.746;2023-08-06T05:23:11;16.60;99.90
13482;DHT22;6813;60.352;15.746;2023-08-06T05:25:40;16.60;99.90
13482;DHT22;6813;60.352;15.746;2023-08-06T05:28:06;16.60;99.90
13482;DHT22;6813;60.352;15.746;2023-08-06T05:30:32;16.60;99.90
13482;DHT22;6813;60.352;15.746;2023-08-06T05:32:58;16.70;99.90
13482;DHT22;6813;60.352;15.746;2023-08-06T05:35:23;16.70;99.90
13482;DHT22;6813;60.352;15.746;2023-08-06T05:37:52;16.80;99.90
13482;DHT22;6813;60.352;15.746;2023-08-06T05:40:18;16.70;99.90
13482;DHT22;6813;60.352;15.746;2023-08-06T05:42:44;16.60;99.90
13482;DHT22;6813;60.352;15.746;2023-08-06T05:45:10;16.70;99.90
13482;DHT22;6813;60.352;15.746;2023-08-06T05:47:35;16.70;99.90
13482;DHT22;6813;60.352;15.746;2023-08-06T05:50:01;16.70;99.90
13482;DHT22;6813;60.352;15.746;2023-08-06T05:52:27;16.80;99.90
13482;DHT22;6813;60.352;15.746;2023-08-06T05:54:52;16.80;99.90
13482;DHT22;6813;60.352;15.746;2023-08-06T05:57:18;16.90;99.90
13482;DHT22;6813;60.352;15.746;2023-08-06T05:59:44;16.80;99.90
13482;DHT22;6813;60.352;15.746;2023-08-06T06:02:10;16.90;99.90
13482;DHT22;6813;60.352;15.746;2023-08-06T06:04:37;17.00;99.90
13482;DHT22;6813;60.352;15.746;2023-08-06T06:07:03;17.00;99.90
13482;DHT22;6813;60.352;15.746;2023-08-06T06:09:29;16.90;99.90
13482;DHT22;6813;60.352;15.746;2023-08-06T06:11:54;17.00;99.90
13482;DHT22;6813;60.352;15.746;2023-08-06T06:14:20;17.00;99.90
13482;DHT22;6813;60.352;15.746;2023-08-06T06:16:46;17.00;99.90
13482;DHT22;6813;60.352;15.746;2023-08-06T06:19:12;17.00;99.90
13482;DHT22;6813;60.352;15.746;2023-08-06T06:21:38;17.00;99.90
13482;DHT22;6813;60.352;15.746;2023-08-06T06:24:05;16.80;99.90
13482;DHT22;6813;60.352;15.746;2023-08-06T06:26:31;16.70;99.90
13482;DHT22;6813;60.352;15.746;2023-08-06T06:28:58;16.70;99.90
13482;DHT22;6813;60.352;15.746;2023-08-06T06:31:23;16.80;99.90
13482;DHT22;6813;60.352;15.746;2023-08-06T06:33:49;16.90;99.90
13482;DHT22;6813;60.352;15.746;2023-08-06T06:36:15;17.00;99.90
13482;DHT22;6813;60.352;15.746;2023-08-06T06:38:41;17.10;99.90
13482;DHT22;6813;60.352;15.746;2023-08-06T06:41:06;17.20;99.90
13482;DHT22;6813;60.352;15.746;2023-08-06T06:43:32;17.30;99.90
13482;DHT22;6813;60.352;15.746;2023-08-06T06:45:59;17.30;99.90
13482;DHT22;6813;60.352;15.746;2023-08-06T06:48:32;17.40;99.90
13482;DHT22;6813;60.352;15.746;2023-08-06T06:50:58;17.40;99.90
13482;DHT22;6813;60.352;15.746;2023-08-06T06:53:24;17.40;99.90
13482;DHT22;6813;60.352;15.746;2023-08-06T06:55:54;17.30;99.90
13482;DHT22;6813;60.352;15.746;2023-08-06T06:58:20;17.10;99.90
13482;DHT22;6813;60.352;15.746;2023-08-06T07:00:47;17.20;99.90
13482;DHT22;6813;60.352;15.746;2023-08-06T07:03:15;17.30;99.90
13482;DHT22;6813;60.352;15.746;2023-08-06T07:05:40;17.40;99.90
13482;DHT22;6813;60.352;15.746;2023-08-06T07:08:06;17.50;99.90
13482;DHT22;6813;60.352;15.746;2023-08-06T07:10:32;17.60;99.90
13482;DHT22;6813;60.352;15.746;2023-08-06T07:12:57;17.70;99.90
13482;DHT22;6813;60.352;15.746;2023-08-06T07:15:23;17.80;99.90
13482;DHT22;6813;60.352;15.746;2023-08-06T07:18:12;17.90;99.90
13482;DHT22;6813;60.352;15.746;2023-08-06T07:20:59;17.90;99.90
13482;DHT22;6813;60.352;15.746;2023-08-06T07:23:50;18.00;99.90
13482;DHT22;6813;60.352;15.746;2023-08-06T07:26:21;17.90;99.90
13482;DHT22;6813;60.352;15.746;2023-08-06T07:28:46;17.90;99.90
13482;DHT22;6813;60.352;15.746;2023-08-06T07:31:12;18.00;99.90
13482;DHT22;6813;60.352;15.746;2023-08-06T07:33:38;18.00;99.90
13482;DHT22;6813;60.352;15.746;2023-08-06T07:36:11;18.10;99.90
13482;DHT22;6813;60.352;15.746;2023-08-06T07:38:37;18.20;99.90
13482;DHT22;6813;60.352;15.746;2023-08-06T07:41:04;18.20;99.90
13482;DHT22;6813;60.352;15.746;2023-08-06T07:43:30;18.20;99.90
13482;DHT22;6813;60.352;15.746;2023-08-06T07:46:00;18.20;99.90
13482;DHT22;6813;60.352;15.746;2023-08-06T07:48:26;18.30;99.90
13482;DHT22;6813;60.352;15.746;2023-08-06T07:50:55;18.40;99.90
13482;DHT22;6813;60.352;15.746;2023-08-06T07:53:22;18.40;99.90
13482;DHT22;6813;60.352;15.746;2023-08-06T07:55:52;18.40;99.90
13482;DHT22;6813;60.352;15.746;2023-08-06T07:58:19;18.40;99.90
13482;DHT22;6813;60.352;15.746;2023-08-06T08:00:45;18.40;99.90
13482;DHT22;6813;60.352;15.746;2023-08-06T08:03:15;18.40;99.90
13482;DHT22;6813;60.352;15.746;2023-08-06T08:05:42;18.30;99.90
13482;DHT22;6813;60.352;15.746;2023-08-06T08:08:08;18.00;99.90
13482;DHT22;6813;60.352;15.746;2023-08-06T08:10:34;17.90;99.90
13482;DHT22;6813;60.352;15.746;2023-08-06T08:13:03;17.60;99.90
13482;DHT22;6813;60.352;15.746;2023-08-06T08:15:30;17.60;99.90
13482;DHT22;6813;60.352;15.746;2023-08-06T08:17:56;17.60;99.90
13482;DHT22;6813;60.352;15.746;2023-08-06T08:20:22;17.80;99.90
13482;DHT22;6813;60.352;15.746;2023-08-06T08:22:48;18.00;99.90
13482;DHT22;6813;60.352;15.746;2023-08-06T08:25:15;18.20;99.90
13482;DHT22;6813;60.352;15.746;2023-08-06T08:27:40;18.30;99.90
13482;DHT22;6813;60.352;15.746;2023-08-06T08:30:06;18.50;99.90
13482;DHT22;6813;60.352;15.746;2023-08-06T08:32:32;18.60;99.90
13482;DHT22;6813;60.352;15.746;2023-08-06T08:34:58;18.70;99.90
13482;DHT22;6813;60.352;15.746;2023-08-06T08:37:24;18.80;99.90
13482;DHT22;6813;60.352;15.746;2023-08-06T08:39:50;19.00;99.90
13482;DHT22;6813;60.352;15.746;2023-08-06T08:42:16;19.00;99.90
13482;DHT22;6813;60.352;15.746;2023-08-06T08:44:45;19.10;99.90
13482;DHT22;6813;60.352;15.746;2023-08-06T08:47:11;19.10;99.90
13482;DHT22;6813;60.352;15.746;2023-08-06T08:49:38;19.10;99.90
13482;DHT22;6813;60.352;15.746;2023-08-06T08:52:06;19.20;99.90
13482;DHT22;6813;60.352;15.746;2023-08-06T08:54:38;19.20;99.90
13482;DHT22;6813;60.352;15.746;2023-08-06T08:57:04;19.20;99.90
13482;DHT22;6813;60.352;15.746;2023-08-06T08:59:32;19.20;99.90
13482;DHT22;6813;60.352;15.746;2023-08-06T09:01:58;19.20;99.90
13482;DHT22;6813;60.352;15.746;2023-08-06T09:04:27;19.20;99.90
13482;DHT22;6813;60.352;15.746;2023-08-06T09:06:54;19.30;99.90
13482;DHT22;6813;60.352;15.746;2023-08-06T09:09:34;19.40;99.90
13482;DHT22;6813;60.352;15.746;2023-08-06T09:12:14;19.40;99.90
13482;DHT22;6813;60.352;15.746;2023-08-06T09:14:40;19.50;99.90
13482;DHT22;6813;60.352;15.746;2023-08-06T09:17:06;19.50;99.90
13482;DHT22;6813;60.352;15.746;2023-08-06T09:19:32;19.60;99.90
13482;DHT22;6813;60.352;15.746;2023-08-06T09:22:00;19.60;99.90
13482;DHT22;6813;60.352;15.746;2023-08-06T09:24:25;19.60;99.90
13482;DHT22;6813;60.352;15.746;2023-08-06T09:26:54;19.70;99.90
13482;DHT22;6813;60.352;15.746;2023-08-06T09:29:23;19.70;99.90
13482;DHT22;6813;60.352;15.746;2023-08-06T09:31:51;19.50;99.90
13482;DHT22;6813;60.352;15.746;2023-08-06T09:34:23;19.40;99.90
13482;DHT22;6813;60.352;15.746;2023-08-06T09:39:39;19.20;99.90
13482;DHT22;6813;60.352;15.746;2023-08-06T09:42:18;19.30;99.90
13482;DHT22;6813;60.352;15.746;2023-08-06T09:45:05;19.40;99.90
13482;DHT22;6813;60.352;15.746;2023-08-06T09:47:58;19.50;99.90
13482;DHT22;6813;60.352;15.746;2023-08-06T09:50:32;19.50;99.90
13482;DHT22;6813;60.352;15.746;2023-08-06T09:53:00;19.40;99.90
13482;DHT22;6813;60.352;15.746;2023-08-06T09:55:26;19.20;99.90
13482;DHT22;6813;60.352;15.746;2023-08-06T09:57:52;19.10;99.90
13482;DHT22;6813;60.352;15.746;2023-08-06T10:00:19;18.90;99.90
13482;DHT22;6813;60.352;15.746;2023-08-06T10:02:45;18.90;99.90
13482;DHT22;6813;60.352;15.746;2023-08-06T10:05:15;18.80;99.90
13482;DHT22;6813;60.352;15.746;2023-08-06T10:07:43;18.90;99.90
13482;DHT22;6813;60.352;15.746;2023-08-06T10:10:09;19.10;99.90
13482;DHT22;6813;60.352;15.746;2023-08-06T10:12:38;19.30;99.90
13482;DHT22;6813;60.352;15.746;2023-08-06T10:15:11;19.40;99.90
13482;DHT22;6813;60.352;15.746;2023-08-06T10:17:38;19.30;99.90
13482;DHT22;6813;60.352;15.746;2023-08-06T10:20:06;19.40;99.90
13482;DHT22;6813;60.352;15.746;2023-08-06T10:22:42;19.40;99.90
13482;DHT22;6813;60.352;15.746;2023-08-06T10:25:40;19.40;99.90
13482;DHT22;6813;60.352;15.746;2023-08-06T10:28:39;19.50;99.90
13482;DHT22;6813;60.352;15.746;2023-08-06T10:31:05;19.50;99.90
13482;DHT22;6813;60.352;15.746;2023-08-06T10:33:47;19.70;99.90
13482;DHT22;6813;60.352;15.746;2023-08-06T10:36:14;20.10;99.90
13482;DHT22;6813;60.352;15.746;2023-08-06T10:38:50;20.30;99.90
13482;DHT22;6813;60.352;15.746;2023-08-06T10:41:27;20.20;99.90
13482;DHT22;6813;60.352;15.746;2023-08-06T10:44:08;20.20;99.90
13482;DHT22;6813;60.352;15.746;2023-08-06T10:46:34;20.20;99.90
13482;DHT22;6813;60.352;15.746;2023-08-06T10:49:01;20.30;99.90
13482;DHT22;6813;60.352;15.746;2023-08-06T10:51:27;20.60;99.90
13482;DHT22;6813;60.352;15.746;2023-08-06T10:53:53;20.60;99.90
13482;DHT22;6813;60.352;15.746;2023-08-06T10:56:21;20.40;99.90
13482;DHT22;6813;60.352;15.746;2023-08-06T10:58:53;20.30;99.90
13482;DHT22;6813;60.352;15.746;2023-08-06T11:01:19;20.10;99.90
13482;DHT22;6813;60.352;15.746;2023-08-06T11:03:46;20.00;99.90
13482;DHT22;6813;60.352;15.746;2023-08-06T11:06:18;20.20;99.90
13482;DHT22;6813;60.352;15.746;2023-08-06T11:08:49;20.50;99.90
13482;DHT22;6813;60.352;15.746;2023-08-06T11:11:16;20.70;99.90
13482;DHT22;6813;60.352;15.746;2023-08-06T11:13:44;20.80;99.90
13482;DHT22;6813;60.352;15.746;2023-08-06T11:16:17;20.90;99.90
13482;DHT22;6813;60.352;15.746;2023-08-06T11:18:45;20.80;99.90
13482;DHT22;6813;60.352;15.746;2023-08-06T11:21:11;20.80;99.90
13482;DHT22;6813;60.352;15.746;2023-08-06T11:24:12;20.90;99.90
13482;DHT22;6813;60.352;15.746;2023-08-06T11:26:40;21.00;99.90
13482;DHT22;6813;60.352;15.746;2023-08-06T11:29:16;21.00;99.90
13482;DHT22;6813;60.352;15.746;2023-08-06T11:31:42;21.10;99.90
13482;DHT22;6813;60.352;15.746;2023-08-06T11:34:07;21.10;99.90
13482;DHT22;6813;60.352;15.746;2023-08-06T11:36:41;21.20;99.90
13482;DHT22;6813;60.352;15.746;2023-08-06T11:39:07;21.20;99.90
13482;DHT22;6813;60.352;15.746;2023-08-06T11:41:33;21.30;99.90
13482;DHT22;6813;60.352;15.746;2023-08-06T11:43:59;21.30;99.90
13482;DHT22;6813;60.352;15.746;2023-08-06T11:46:25;21.40;99.90
13482;DHT22;6813;60.352;15.746;2023-08-06T11:48:55;21.50;99.90
13482;DHT22;6813;60.352;15.746;2023-08-06T11:51:27;21.50;99.90
13482;DHT22;6813;60.352;15.746;2023-08-06T11:53:57;21.50;99.90
13482;DHT22;6813;60.352;15.746;2023-08-06T11:56:23;21.60;99.90
13482;DHT22;6813;60.352;15.746;2023-08-06T11:58:49;21.80;99.90
13482;DHT22;6813;60.352;15.746;2023-08-06T12:01:15;21.80;99.90
13482;DHT22;6813;60.352;15.746;2023-08-06T12:03:43;21.80;99.90
13482;DHT22;6813;60.352;15.746;2023-08-06T12:06:09;21.40;99.90
13482;DHT22;6813;60.352;15.746;2023-08-06T12:08:35;21.20;99.90
13482;DHT22;6813;60.352;15.746;2023-08-06T12:11:01;21.10;99.90
13482;DHT22;6813;60.352;15.746;2023-08-06T12:13:27;20.80;99.90
13482;DHT22;6813;60.352;15.746;2023-08-06T12:15:54;20.80;99.90
13482;DHT22;6813;60.352;15.746;2023-08-06T12:18:20;21.00;99.90
13482;DHT22;6813;60.352;15.746;2023-08-06T12:20:45;21.00;99.90
13482;DHT22;6813;60.352;15.746;2023-08-06T12:23:11;21.10;99.90
13482;DHT22;6813;60.352;15.746;2023-08-06T12:25:41;21.20;99.90
13482;DHT22;6813;60.352;15.746;2023-08-06T12:28:07;21.20;99.90
13482;DHT22;6813;60.352;15.746;2023-08-06T12:30:34;21.20;99.90
13482;DHT22;6813;60.352;15.746;2023-08-06T12:32:59;21.10;99.90
13482;DHT22;6813;60.352;15.746;2023-08-06T12:35:25;21.30;99.90
13482;DHT22;6813;60.352;15.746;2023-08-06T12:37:51;21.30;99.90
13482;DHT22;6813;60.352;15.746;2023-08-06T12:40:20;21.40;99.90
13482;DHT22;6813;60.352;15.746;2023-08-06T12:42:46;21.40;99.90
13482;DHT22;6813;60.352;15.746;2023-08-06T12:45:12;21.50;99.90
13482;DHT22;6813;60.352;15.746;2023-08-06T12:47:38;21.60;99.90
13482;DHT22;6813;60.352;15.746;2023-08-06T12:50:04;21.80;99.90
13482;DHT22;6813;60.352;15.746;2023-08-06T12:52:29;21.90;99.90
13482;DHT22;6813;60.352;15.746;2023-08-06T12:54:55;21.90;99.90
13482;DHT22;6813;60.352;15.746;2023-08-06T12:57:21;21.80;99.90
13482;DHT22;6813;60.352;15.746;2023-08-06T12:59:47;21.60;99.90
13482;DHT22;6813;60.352;15.746;2023-08-06T13:02:13;21.60;99.90
13482;DHT22;6813;60.352;15.746;2023-08-06T13:04:39;21.60;99.90
13482;DHT22;6813;60.352;15.746;2023-08-06T13:07:05;21.60;99.90
13482;DHT22;6813;60.352;15.746;2023-08-06T13:09:32;21.40;99.90
13482;DHT22;6813;60.352;15.746;2023-08-06T13:11:58;21.20;99.90
13482;DHT22;6813;60.352;15.746;2023-08-06T13:14:25;20.90;99.90
13482;DHT22;6813;60.352;15.746;2023-08-06T13:16:51;20.80;99.90
13482;DHT22;6813;60.352;15.746;2023-08-06T13:19:17;20.80;99.90
13482;DHT22;6813;60.352;15.746;2023-08-06T13:24:17;21.00;99.90
13482;DHT22;6813;60.352;15.746;2023-08-06T13:26:43;20.90;99.90
13482;DHT22;6813;60.352;15.746;2023-08-06T13:29:09;21.00;99.90
13482;DHT22;6813;60.352;15.746;2023-08-06T13:31:36;21.10;99.90
13482;DHT22;6813;60.352;15.746;2023-08-06T13:34:02;21.20;99.90
13482;DHT22;6813;60.352;15.746;2023-08-06T13:36:28;21.20;99.90
13482;DHT22;6813;60.352;15.746;2023-08-06T13:38:54;21.30;99.90
13482;DHT22;6813;60.352;15.746;2023-08-06T13:41:20;21.30;99.90
13482;DHT22;6813;60.352;15.746;2023-08-06T13:43:45;21.50;99.90
13482;DHT22;6813;60.352;15.746;2023-08-06T13:46:11;21.50;99.90
13482;DHT22;6813;60.352;15.746;2023-08-06T13:48:44;21.60;99.90
13482;DHT22;6813;60.352;15.746;2023-08-06T13:51:11;21.70;99.90
13482;DHT22;6813;60.352;15.746;2023-08-06T13:53:37;21.50;99.90
13482;DHT22;6813;60.352;15.746;2023-08-06T13:56:05;21.40;99.90
13482;DHT22;6813;60.352;15.746;2023-08-06T13:58:31;21.20;99.90
13482;DHT22;6813;60.352;15.746;2023-08-06T14:00:57;21.10;99.90
13482;DHT22;6813;60.352;15.746;2023-08-06T14:03:23;20.90;99.90
13482;DHT22;6813;60.352;15.746;2023-08-06T14:05:49;20.80;99.90
13482;DHT22;6813;60.352;15.746;2023-08-06T14:08:15;20.60;99.90
13482;DHT22;6813;60.352;15.746;2023-08-06T14:10:44;20.70;99.90
13482;DHT22;6813;60.352;15.746;2023-08-06T14:13:10;20.80;99.90
13482;DHT22;6813;60.352;15.746;2023-08-06T14:15:36;20.80;99.90
13482;DHT22;6813;60.352;15.746;2023-08-06T14:18:02;21.00;99.90
13482;DHT22;6813;60.352;15.746;2023-08-06T14:20:28;20.90;99.90
13482;DHT22;6813;60.352;15.746;2023-08-06T14:22:54;20.90;99.90
13482;DHT22;6813;60.352;15.746;2023-08-06T14:25:19;20.90;99.90
13482;DHT22;6813;60.352;15.746;2023-08-06T14:27:45;20.80;99.90
13482;DHT22;6813;60.352;15.746;2023-08-06T14:30:11;20.80;99.90
13482;DHT22;6813;60.352;15.746;2023-08-06T14:32:37;20.70;99.90
13482;DHT22;6813;60.352;15.746;2023-08-06T14:35:03;20.40;99.90
13482;DHT22;6813;60.352;15.746;2023-08-06T14:37:28;20.10;99.90
13482;DHT22;6813;60.352;15.746;2023-08-06T14:39:54;20.30;99.90
13482;DHT22;6813;60.352;15.746;2023-08-06T14:42:20;20.20;99.90
13482;DHT22;6813;60.352;15.746;2023-08-06T14:44:46;20.10;99.90
13482;DHT22;6813;60.352;15.746;2023-08-06T14:47:11;20.00;99.90
13482;DHT22;6813;60.352;15.746;2023-08-06T14:49:38;19.90;99.90
13482;DHT22;6813;60.352;15.746;2023-08-06T14:52:04;19.70;99.90
13482;DHT22;6813;60.352;15.746;2023-08-06T14:54:30;19.80;99.90
13482;DHT22;6813;60.352;15.746;2023-08-06T14:56:56;19.60;99.90
13482;DHT22;6813;60.352;15.746;2023-08-06T14:59:22;19.50;99.90
13482;DHT22;6813;60.352;15.746;2023-08-06T15:01:48;19.60;99.90
13482;DHT22;6813;60.352;15.746;2023-08-06T15:04:13;19.60;99.90
13482;DHT22;6813;60.352;15.746;2023-08-06T15:06:39;19.30;99.90
13482;DHT22;6813;60.352;15.746;2023-08-06T15:09:05;19.30;99.90
13482;DHT22;6813;60.352;15.746;2023-08-06T15:11:30;19.10;99.90
13482;DHT22;6813;60.352;15.746;2023-08-06T15:13:56;19.10;99.90
13482;DHT22;6813;60.352;15.746;2023-08-06T15:16:22;19.10;99.90
13482;DHT22;6813;60.352;15.746;2023-08-06T15:18:47;18.90;99.90
13482;DHT22;6813;60.352;15.746;2023-08-06T15:21:14;18.80;99.90
13482;DHT22;6813;60.352;15.746;2023-08-06T15:23:40;18.70;99.90
13482;DHT22;6813;60.352;15.746;2023-08-06T15:26:05;18.90;99.90
13482;DHT22;6813;60.352;15.746;2023-08-06T15:28:34;18.70;99.90
13482;DHT22;6813;60.352;15.746;2023-08-06T15:31:12;18.80;99.90
13482;DHT22;6813;60.352;15.746;2023-08-06T15:33:38;18.80;99.90
13482;DHT22;6813;60.352;15.746;2023-08-06T15:36:04;18.60;99.90
13482;DHT22;6813;60.352;15.746;2023-08-06T15:38:30;18.70;99.90